• Join FlightAware (Why Join?)
  • Login
  • US Flag 
02:36PM EDT


 

Airport Tracker/Info


-or-


 

Live Flight TrackerFlight Track Log ✈ A6-EDY ✈ 19-Apr-2013 ✈ OMDB / DXB - KJFK

Flight Track Log - Related Links

Times and Time Zones

All times are in EDT time to prevent confusion due to time zone crossing. See the A6-EDY flight status page for this flight to view local times or setup timezone preferences in your user account.

Time Position Orientation Groundspeed Altitude Reporting Facility
EDT Latitude Longitude Course Direction KTS MPH feet Rate Location/Type
01:20AM 25.2580 55.3620 299° West 146 168 200  Level FlightAware
01:20AM 25.2720 55.3380 303° West 166 191 1,000 1,260 Climbing FlightAware
01:21AM 25.2900 55.3050 301° West 191 220 1,700 960 Climbing FlightAware
01:22AM 25.3050 55.2780 302° West 216 249 2,200 960 Climbing FlightAware
01:22AM 25.3100 55.2580 285° West 229 264 2,600 1,680 Climbing FlightAware
01:25AM 25.5711 55.0938 322° Northwest  Level FlightAware Approximate
01:26AM 25.6681 55.0198 326° Northwest  Level FlightAware Approximate
01:27AM 25.7642 54.9443 324° Northwest  Level FlightAware Approximate
01:28AM 25.8589 54.8664 323° Northwest  Level FlightAware Approximate
01:29AM 25.9535 54.7884 323° Northwest  Level FlightAware Approximate
01:30AM 26.0482 54.7106 324° Northwest  Level FlightAware Approximate
01:31AM 26.1431 54.6329 324° Northwest  Level FlightAware Approximate
01:32AM 26.2374 54.5543 323° Northwest  Level FlightAware Approximate
01:32AM 25.5060 54.2800 323° Northwest 384 442 20,100  Level FlightAware
01:33AM 25.5310 54.1790 285° West 390 449 21,300 1,260 Climbing FlightAware
01:34AM 25.5490 54.1000 284° West 398 458 22,000 1,320 Climbing FlightAware
01:34AM 25.5710 54.0110 285° West 398 458 23,200 1,260 Climbing FlightAware
01:35AM 25.5900 53.9320 285° West 402 463 23,800 900 Climbing FlightAware
01:36AM 25.6100 53.8480 285° West 414 476 24,400 1,860 Climbing FlightAware
01:37AM 25.6300 53.7640 285° West 396 456 26,500 1,920 Climbing FlightAware
01:37AM 25.6500 53.6820 285° West 390 449 27,200 1,080 Climbing FlightAware
01:38AM 25.6710 53.5930 285° West 387 445 28,100 1,080 Climbing FlightAware
01:39AM 25.6870 53.5260 285° West 388 447 28,700 780 Climbing FlightAware
01:39AM 25.7060 53.4440 284° West 392 451 29,200 300 Climbing FlightAware
01:42AM 25.9113 53.2684 322° Northwest  Level Estimated
01:42AM 25.7730 53.0810 322° Northwest 426 490 30,000  Level FlightAware
01:45AM 25.9778 52.9046 322° Northwest  Level Estimated
01:45AM 25.9010 52.7920 322° Northwest 429 494 30,000  Level FlightAware
01:46AM 25.9510 52.6860 298° West 428 493 30,000  Level FlightAware
01:47AM 26.0170 52.5490 298° West 424 488 30,000 300 Level FlightAware
01:49AM 26.1716 52.4143 322° Northwest  Level Estimated
01:50AM 26.2625 52.3350 322° Northwest  Level Estimated
01:51AM 26.3533 52.2555 322° Northwest  Level Estimated
01:52AM 26.4442 52.1759 322° Northwest  Level Estimated
01:52AM 26.3060 51.9400 322° Northwest 424 488 32,000  Level FlightAware
01:53AM 26.3730 51.7960 297° West 424 488 32,000  Level FlightAware
01:54AM 26.4370 51.6600 298° West 424 488 32,000  Level FlightAware
01:56AM 26.5000 51.5250 298° West 424 488 32,000  Level FlightAware
01:56AM 26.5460 51.4260 297° West 425 489 32,000  Level FlightAware
01:57AM 26.5820 51.3460 297° West 423 487 32,000  Level FlightAware
01:58AM 26.6130 51.2780 297° West 418 481 32,000  Level FlightAware
01:59AM 26.6850 51.0930 294° West 417 480 32,000  Level FlightAware
02:00AM 26.7400 50.9490 293° West 417 480 32,000  Level FlightAware
02:02AM 26.7940 50.8140 294° West 417 480 32,000  Level FlightAware
02:03AM 26.8540 50.6580 293° West 415 478 32,000  Level FlightAware
02:04AM 26.8840 50.5780 293° West 416 479 32,000  Level FlightAware
02:04AM 26.9090 50.5110 293° West 416 479 32,000  Level FlightAware
02:05AM 26.9350 50.4430 293° West 416 479 32,000  Level FlightAware
02:06AM 26.9600 50.3760 293° West 416 479 32,000  Level FlightAware
02:06AM 26.9860 50.3080 293° West 416 479 32,000  Level FlightAware
02:07AM 27.0180 50.2240 293° West 416 479 32,000  Level FlightAware
02:08AM 27.0440 50.1560 293° West 416 479 32,000  Level FlightAware
02:08AM 27.0690 50.0880 292° West 416 479 32,000  Level FlightAware
02:09AM 27.0950 50.0210 294° West 416 479 32,000  Level FlightAware
02:10AM 27.1200 49.9530 292° West 416 479 32,000  Level FlightAware
02:11AM 27.1520 49.8680 293° West 416 479 32,000  Level FlightAware
02:11AM 27.1780 49.8010 294° West 416 479 32,000  Level FlightAware
02:12AM 27.2030 49.7330 292° West 416 479 32,000  Level FlightAware
02:13AM 27.2290 49.6650 293° West 416 479 32,000  Level FlightAware
02:15AM 27.3954 49.5109 321° Northwest  Level Estimated
02:16AM 27.4845 49.4281 321° Northwest  Level Estimated
02:16AM 27.9270 49.4580 321° Northwest 32,000  Level FlightAware
02:17AM 27.9920 49.4110 327° Northwest 437 503 32,000  Level FlightAware
02:18AM 28.0790 49.3490 328° Northwest 436 502 32,000  Level FlightAware
02:19AM 28.1550 49.2930 327° Northwest 436 502 32,000  Level FlightAware
02:19AM 28.2440 49.2300 328° Northwest 439 505 32,000  Level FlightAware
02:20AM 28.2980 49.1910 328° Northwest 438 504 32,000  Level FlightAware
02:21AM 28.3780 49.1330 327° Northwest 438 504 32,000  Level FlightAware
02:21AM 28.4450 49.0840 327° Northwest 439 505 32,000  Level FlightAware
02:22AM 28.5290 49.0230 327° Northwest 442 509 32,000  Level FlightAware
02:23AM 28.5940 48.9760 328° Northwest 442 509 32,000  Level FlightAware
02:23AM 28.6710 48.9200 327° Northwest 439 505 32,000  Level FlightAware
02:24AM 28.7490 48.8630 327° Northwest 436 502 32,000  Level FlightAware
02:25AM 28.8220 48.8100 328° Northwest 433 498 32,000  Level FlightAware
02:26AM 28.8900 48.7600 327° Northwest 434 499 32,000  Level FlightAware
02:26AM 28.9660 48.7040 327° Northwest 434 499 32,000  Level FlightAware
02:27AM 29.0290 48.6580 327° Northwest 434 499 32,000  Level FlightAware
02:28AM 29.1150 48.5940 327° Northwest 434 499 32,000  Level FlightAware
02:28AM 29.1870 48.5410 327° Northwest 433 498 32,000  Level FlightAware
02:29AM 29.2620 48.4860 327° Northwest 432 497 32,000  Level FlightAware
02:30AM 29.3480 48.4220 327° Northwest 435 501 32,000  Level FlightAware
02:31AM 29.4370 48.3550 327° Northwest 438 504 32,000  Level FlightAware
02:32AM 29.5330 48.2850 328° Northwest 438 504 32,000  Level FlightAware
02:33AM 29.5990 48.2350 327° Northwest 435 501 32,000  Level FlightAware
02:33AM 29.6670 48.1850 327° Northwest 434 499 32,000  Level FlightAware
02:34AM 29.7220 48.1440 327° Northwest 434 499 32,000  Level FlightAware
02:35AM 29.8180 48.0720 327° Northwest 432 497 32,000  Level FlightAware
02:35AM 29.8780 48.0270 327° Northwest 434 499 32,000  Level FlightAware
02:36AM 29.9580 47.9670 327° Northwest 434 499 32,000  Level FlightAware
02:37AM 30.0180 47.9190 325° Northwest 432 497 32,000  Level FlightAware
02:37AM 30.0730 47.8740 325° Northwest 432 497 32,000  Level FlightAware
02:38AM 30.0870 47.8320 291° West 410 472 32,000  Level FlightAware
02:38AM 30.1450 47.7540 311° West 414 476 32,000  Level FlightAware
02:39AM 30.2030 47.6840 314° West 428 493 32,000  Level FlightAware
02:40AM 30.2740 47.6120 319° Northwest 426 490 32,000  Level FlightAware
02:41AM 30.3360 47.5470 318° Northwest 424 488 32,000  Level FlightAware
02:41AM 30.3860 47.4950 318° Northwest 424 488 32,000  Level FlightAware
02:42AM 30.4480 47.4300 318° Northwest 424 488 32,000  Level FlightAware
02:43AM 30.4980 47.3790 319° Northwest 424 488 32,000  Level FlightAware
02:43AM 30.5470 47.3270 318° Northwest 424 488 32,000  Level FlightAware
02:44AM 30.6450 47.2280 319° Northwest 419 482 32,000  Level FlightAware
02:45AM 30.6940 47.1770 318° Northwest 419 482 32,000  Level FlightAware
02:46AM 30.7550 47.1120 318° Northwest 419 482 32,000  Level FlightAware
02:46AM 30.8040 47.0610 318° Northwest 419 482 32,000  Level FlightAware
02:47AM 30.8530 47.0100 318° Northwest 419 482 32,000  Level FlightAware
02:48AM 30.9020 46.9580 318° Northwest 419 482 32,000  Level FlightAware
02:48AM 30.9510 46.9070 318° Northwest 419 482 32,000  Level FlightAware
02:49AM 31.0000 46.8550 318° Northwest 419 482 32,000  Level FlightAware
02:50AM 31.0610 46.7910 318° Northwest 419 482 32,000  Level FlightAware
02:50AM 31.1100 46.7400 318° Northwest 419 482 32,000  Level FlightAware
02:51AM 31.1590 46.6880 318° Northwest 419 482 32,000  Level FlightAware
02:52AM 31.2080 46.6370 318° Northwest 419 482 32,000  Level FlightAware
02:53AM 31.2690 46.5720 318° Northwest 419 482 32,000  Level FlightAware
02:53AM 31.3180 46.5200 318° Northwest 419 482 32,000  Level FlightAware
02:56AM 31.5098 46.3248 319° Northwest  Level Estimated
02:57AM 31.5968 46.2358 319° Northwest  Level Estimated
02:58AM 31.6838 46.1466 319° Northwest  Level Estimated
02:59AM 31.7707 46.0573 319° Northwest  Level Estimated
03:00AM 31.8576 45.9678 319° Northwest  Level Estimated
03:01AM 31.9444 45.8781 319° Northwest  Level Estimated
03:02AM 32.0312 45.7883 319° Northwest  Level Estimated
03:03AM 32.1179 45.6983 319° Northwest  Level Estimated
03:04AM 32.2045 45.6081 319° Northwest  Level Estimated
03:05AM 32.2910 45.5177 319° Northwest  Level Estimated
03:06AM 32.3775 45.4272 319° Northwest  Level Estimated
03:07AM 32.4639 45.3365 318° Northwest  Level Estimated
03:07AM 32.6180 45.1130 318° Northwest 431 496 32,000  Level FlightAware
03:08AM 32.6900 45.0560 326° Northwest 446 513 32,000  Level FlightAware
03:08AM 32.7660 45.0100 333° Northwest 451 519 32,000  Level FlightAware
03:09AM 32.8440 44.9620 333° Northwest 450 518 32,000  Level FlightAware
03:10AM 32.9240 44.9120 332° Northwest 454 522 32,000  Level FlightAware
03:10AM 33.0000 44.8660 333° Northwest 456 525 32,000  Level FlightAware
03:11AM 33.0870 44.8130 333° Northwest 457 526 32,000  Level FlightAware
03:12AM 33.1610 44.7680 333° Northwest 460 529 32,000 120 Level FlightAware
03:12AM 33.2390 44.7260 336° Northwest 471 542 32,200 600 Climbing FlightAware
03:13AM 33.3340 44.6910 343° North 476 548 32,900 840 Climbing FlightAware
03:14AM 33.4200 44.6590 343° North 477 549 33,400 660 Climbing FlightAware
03:15AM 33.5130 44.6240 343° North 477 549 33,900 420 Climbing FlightAware
03:15AM 33.5940 44.5870 339° North 462 532 34,000 60 Climbing FlightAware
03:16AM 33.6830 44.5430 338° Northwest 464 534 34,000  Level FlightAware
03:17AM 33.7640 44.5030 338° Northwest 460 529 34,000  Level FlightAware
03:17AM 33.8430 44.4650 338° Northwest 459 528 34,000  Level FlightAware
03:18AM 33.9170 44.4280 337° Northwest 459 528 34,000  Level FlightAware
03:19AM 34.0050 44.3840 337° Northwest 460 529 34,000  Level FlightAware
03:20AM 34.1020 44.3360 338° Northwest 461 531 34,000  Level FlightAware
03:20AM 34.1770 44.2990 338° Northwest 463 533 34,000  Level FlightAware
03:21AM 34.2600 44.2580 338° Northwest 463 533 34,000  Level FlightAware
03:22AM 34.3480 44.2140 338° Northwest 464 534 34,000  Level FlightAware
03:22AM 34.4280 44.1740 338° Northwest 464 534 34,000  Level FlightAware
03:23AM 34.5180 44.1290 338° Northwest 464 534 34,000  Level FlightAware
03:24AM 34.5970 44.0870 336° Northwest 464 534 34,000  Level FlightAware
03:24AM 34.6730 44.0470 337° Northwest 465 535 34,000  Level FlightAware
03:25AM 34.7620 44.0000 337° Northwest 466 536 34,000  Level FlightAware
03:26AM 34.8430 43.9580 337° Northwest 467 537 34,000  Level FlightAware
03:26AM 34.9220 43.9160 336° Northwest 467 537 34,000  Level FlightAware
03:27AM 35.0140 43.8680 337° Northwest 469 540 34,000  Level FlightAware
03:28AM 35.0940 43.8260 337° Northwest 471 542 34,000  Level FlightAware
03:29AM 35.1820 43.7790 336° Northwest 474 545 34,000  Level FlightAware
03:29AM 35.2620 43.7360 336° Northwest 476 548 34,000  Level FlightAware
03:30AM 35.3560 43.6860 337° Northwest 480 552 34,000  Level FlightAware
03:31AM 35.4340 43.6450 337° Northwest 480 552 34,000  Level FlightAware
03:31AM 35.5270 43.5950 336° Northwest 479 551 34,000  Level FlightAware
03:32AM 35.6090 43.5510 336° Northwest 478 550 34,000  Level FlightAware
03:33AM 35.6890 43.5080 336° Northwest 476 548 34,000  Level FlightAware
03:33AM 35.7690 43.4650 336° Northwest 471 542 34,000  Level FlightAware
03:34AM 35.8580 43.4170 336° Northwest 471 542 34,000  Level FlightAware
03:35AM 35.9400 43.3730 337° Northwest 471 542 34,000  Level FlightAware
03:36AM 36.0290 43.3240 336° Northwest 473 544 34,000  Level FlightAware
03:36AM 36.1100 43.2810 337° Northwest 473 544 34,000  Level FlightAware
03:37AM 36.2010 43.2310 336° Northwest 475 547 34,000  Level FlightAware
03:38AM 36.2820 43.1860 336° Northwest 478 550 34,000  Level FlightAware
03:38AM 36.3720 43.1360 336° Northwest 478 550 34,000  Level FlightAware
03:39AM 36.4510 43.0920 336° Northwest 478 550 34,000  Level FlightAware
03:40AM 36.5330 43.0470 336° Northwest 481 554 34,000  Level FlightAware
03:40AM 36.6150 43.0020 336° Northwest 483 556 34,000  Level FlightAware
03:41AM 36.7060 42.9510 336° Northwest 483 556 34,000  Level FlightAware
03:42AM 36.7980 42.8990 336° Northwest 484 557 34,000  Level FlightAware
03:43AM 36.8810 42.8540 337° Northwest 484 557 34,000  Level FlightAware
03:43AM 36.9640 42.8080 336° Northwest 486 559 34,000  Level FlightAware
03:44AM 37.0540 42.7580 336° Northwest 487 560 34,000  Level FlightAware
03:45AM 37.1410 42.7100 336° Northwest 487 560 34,000  Level FlightAware
03:45AM 37.2010 42.6740 334° Northwest 481 554 34,000  Level FlightAware
03:46AM 37.2740 42.6140 327° Northwest 474 545 34,000  Level FlightAware
03:47AM 37.3420 42.5430 320° Northwest 467 537 34,000  Level FlightAware
03:47AM 37.4110 42.4630 317° Northwest 469 540 34,000  Level FlightAware
03:48AM 37.4750 42.3890 317° Northwest 471 542 34,000  Level FlightAware
03:49AM 37.5490 42.3040 318° Northwest 471 542 34,000  Level FlightAware
03:49AM 37.6130 42.2290 317° Northwest 470 541 34,000  Level FlightAware
03:50AM 37.6770 42.1540 317° Northwest 469 540 34,000  Level FlightAware
03:51AM 37.7480 42.0720 318° Northwest 469 540 34,000  Level FlightAware
03:51AM 37.8080 42.0010 317° Northwest 469 540 34,000  Level FlightAware
03:52AM 37.8740 41.9240 317° Northwest 471 542 34,000  Level FlightAware
03:53AM 37.9410 41.8380 315° West 465 535 34,000  Level FlightAware
03:54AM 37.9970 41.7530 310° West 465 535 34,000  Level FlightAware
03:54AM 38.0440 41.6820 310° West 465 535 34,000  Level FlightAware
03:55AM 38.0910 41.6110 310° West 465 535 34,000  Level FlightAware
03:56AM 38.1380 41.5400 310° West 465 535 34,000  Level FlightAware
03:56AM 38.1850 41.4680 310° West 465 535 34,000  Level FlightAware
03:57AM 38.2440 41.3790 310° West 465 535 34,000  Level FlightAware
03:58AM 38.2910 41.3080 310° West 465 535 34,000  Level FlightAware
03:58AM 38.3380 41.2370 310° West 465 535 34,000  Level FlightAware
03:59AM 38.3850 41.1650 310° West 465 535 34,000  Level FlightAware
04:00AM 38.4320 41.0940 310° West 465 535 34,000  Level FlightAware
04:00AM 38.4790 41.0220 310° West 465 535 34,000  Level FlightAware
04:01AM 38.5380 40.9320 310° West 465 535 34,000  Level FlightAware
04:02AM 38.5850 40.8610 310° West 465 535 34,000  Level FlightAware
04:03AM 38.6320 40.7890 310° West 465 535 34,000  Level FlightAware
04:05AM 38.7873 40.5940 316° Northwest  Level Estimated
04:06AM 38.8696 40.4901 316° Northwest  Level Estimated
04:07AM 38.9519 40.3859 315° West  Level Estimated
04:08AM 39.0340 40.2815 315° West  Level Estimated
04:09AM 39.1161 40.1769 315° West  Level Estimated
04:10AM 39.1981 40.0720 315° West  Level Estimated
04:11AM 39.2799 39.9669 315° West  Level Estimated
04:12AM 39.3617 39.8615 315° West  Level Estimated
04:13AM 39.4434 39.7559 315° West  Level Estimated
04:14AM 39.5249 39.6500 315° West  Level Estimated
04:15AM 39.6064 39.5439 315° West  Level Estimated
04:16AM 39.6878 39.4376 315° West  Level Estimated
04:17AM 39.7691 39.3310 315° West  Level Estimated
04:18AM 39.8503 39.2241 315° West  Level Estimated
04:19AM 39.9314 39.1170 315° West  Level Estimated
04:20AM 40.0124 39.0096 315° West  Level Estimated
04:21AM 40.0933 38.9020 315° West  Level Estimated
04:22AM 40.1741 38.7941 314° West  Level Estimated
04:23AM 40.2548 38.6860 314° West  Level Estimated
04:24AM 40.3354 38.5776 314° West  Level Estimated
04:25AM 40.4159 38.4689 314° West  Level Estimated
04:26AM 40.4963 38.3600 314° West  Level Estimated
04:27AM 40.5766 38.2508 314° West  Level Estimated
04:28AM 40.6568 38.1414 314° West  Level Estimated
04:29AM 40.7369 38.0317 314° West  Level Estimated
04:30AM 40.8168 37.9217 314° West  Level Estimated
04:31AM 40.8967 37.8115 314° West  Level Estimated
04:32AM 40.9765 37.7010 314° West  Level Estimated
04:33AM 41.0561 37.5902 314° West  Level Estimated
04:34AM 41.1357 37.4792 314° West  Level Estimated
04:35AM 41.2151 37.3679 314° West  Level Estimated
04:36AM 41.2945 37.2563 313° West  Level Estimated
04:37AM 41.3737 37.1444 313° West  Level Estimated
04:38AM 41.4529 37.0323 313° West  Level Estimated
04:39AM 41.5319 36.9199 313° West  Level Estimated
04:40AM 41.6108 36.8073 313° West  Level Estimated
04:41AM 41.6896 36.6943 313° West  Level Estimated
04:42AM 41.7683 36.5811 313° West  Level Estimated
04:43AM 41.8469 36.4676 313° West  Level Estimated
04:44AM 41.9253 36.3538 313° West  Level Estimated
04:45AM 42.0037 36.2398 313° West  Level Estimated
04:46AM 42.0819 36.1254 313° West  Level Estimated
04:47AM 42.1600 36.0108 313° West  Level Estimated
04:48AM 42.2380 35.8959 313° West  Level Estimated
04:49AM 42.3159 35.7807 312° West  Level Estimated
04:49AM 42.6930 34.2040 312° West 477 549 34,000  Level FlightAware
04:50AM 42.3937 35.6652 312° West  Level Estimated
04:50AM 42.7640 34.1100 316° Northwest 475 547 34,000  Level FlightAware
04:51AM 42.8300 34.0320 319° Northwest 479 551 34,000  Level FlightAware
04:51AM 42.9060 33.9460 320° Northwest 481 554 34,000 120 Level FlightAware
04:52AM 42.9760 33.8650 320° Northwest 486 559 34,200 540 Climbing FlightAware
04:53AM 43.0530 33.7780 320° Northwest 486 559 34,800 720 Climbing FlightAware
04:54AM 43.1220 33.6980 320° Northwest 486 559 35,300 540 Climbing FlightAware
04:54AM 43.1980 33.6110 320° Northwest 491 565 35,600 240 Climbing FlightAware
04:55AM 43.2700 33.5280 320° Northwest 498 573 35,700 300 Climbing FlightAware
04:56AM 43.3400 33.4460 320° Northwest 499 574 36,000 180 Climbing FlightAware
04:56AM 43.4190 33.3540 320° Northwest 498 573 36,000  Level FlightAware
04:57AM 43.4870 33.2750 320° Northwest 496 571 36,000  Level FlightAware
04:58AM 43.5600 33.1900 320° Northwest 498 573 36,000  Level FlightAware
04:58AM 43.6380 33.0980 320° Northwest 497 572 36,000  Level FlightAware
04:59AM 43.7070 33.0160 319° Northwest 497 572 36,000  Level FlightAware
05:00AM 43.7860 32.9230 320° Northwest 498 573 36,000  Level FlightAware
05:01AM 43.8560 32.8390 319° Northwest 499 574 36,000  Level FlightAware
05:01AM 43.9270 32.7550 320° Northwest 499 574 36,000  Level FlightAware
05:02AM 44.0050 32.6610 319° Northwest 498 573 36,000  Level FlightAware
05:03AM 44.0720 32.5800 319° Northwest 495 570 36,000  Level FlightAware
05:03AM 44.1500 32.4850 319° Northwest 492 566 36,000  Level FlightAware
05:04AM 44.2190 32.4030 320° Northwest 492 566 36,000  Level FlightAware
05:05AM 44.3000 32.3090 320° Northwest 494 568 36,000  Level FlightAware
05:05AM 44.3690 32.2270 320° Northwest 496 571 36,000  Level FlightAware
05:06AM 44.4400 32.1440 320° Northwest 498 573 36,000  Level FlightAware
05:07AM 44.5180 32.0500 319° Northwest 500 575 36,000  Level FlightAware
05:09AM 44.6387 31.8465 310° West  Level Estimated
05:10AM 44.7124 31.7216 310° West  Level Estimated
05:11AM 44.7860 31.5963 310° West  Level Estimated
05:12AM 44.8594 31.4706 310° West  Level Estimated
05:12AM 44.9960 31.4490 310° West 500 575 36,000  Level FlightAware
05:12AM 45.0740 31.3490 318° Northwest 500 575 36,000  Level FlightAware
05:13AM 45.1930 31.1970 318° Northwest 502 578 36,000  Level FlightAware
05:14AM 45.1930 31.1970 318° Northwest 504 580 36,000  Level FlightAware
05:15AM 45.3340 31.0160 318° Northwest 499 574 36,000  Level FlightAware
05:15AM 45.4090 30.9230 319° Northwest 500 575 36,000  Level FlightAware
05:16AM 45.4800 30.8340 319° Northwest 505 581 36,000  Level FlightAware
05:17AM 45.5790 30.7070 318° Northwest 511 588 36,000  Level FlightAware
05:18AM 45.6550 30.6110 319° Northwest 513 590 36,000  Level FlightAware
05:19AM 45.7330 30.5110 318° Northwest 513 590 36,000  Level FlightAware
05:19AM 45.8300 30.3870 318° Northwest 507 583 36,000  Level FlightAware
05:20AM 45.9080 30.2860 318° Northwest 507 583 36,000  Level FlightAware
05:21AM 45.9630 30.2160 319° Northwest 508 585 36,000  Level FlightAware
05:22AM 46.0450 30.1090 318° Northwest 507 583 36,000  Level FlightAware
05:22AM 46.1090 30.0260 318° Northwest 507 583 36,000  Level FlightAware
05:23AM 46.1930 29.9160 318° Northwest 508 585 36,000  Level FlightAware
05:24AM 46.3420 29.7210 318° Northwest 508 585 36,000  Level FlightAware
05:25AM 46.4120 29.6260 317° Northwest 510 587 36,000  Level FlightAware
05:26AM 46.4850 29.5240 316° Northwest 510 587 36,000  Level FlightAware
05:28AM 46.6066 29.2964 308° West  Level Estimated
05:28AM 46.7140 29.2050 308° West 504 580 36,000  Level FlightAware
05:29AM 46.7710 29.1240 316° Northwest 504 580 36,000  Level FlightAware
05:29AM 46.8280 29.0440 316° Northwest 504 580 36,000  Level FlightAware
05:30AM 46.8850 28.9630 316° Northwest 504 580 36,000  Level FlightAware
05:31AM 46.9420 28.8830 316° Northwest 504 580 36,000  Level FlightAware
05:32AM 47.1360 28.6200 317° Northwest 497 572 36,000  Level FlightAware
05:33AM 47.2260 28.4970 317° Northwest 498 573 36,000  Level FlightAware
05:34AM 47.2960 28.4000 317° Northwest 497 572 36,000  Level FlightAware
05:35AM 47.3650 28.3060 317° Northwest 496 571 36,000  Level FlightAware
05:35AM 47.4380 28.2050 317° Northwest 495 570 36,000  Level FlightAware
05:36AM 47.5040 28.1130 317° Northwest 492 566 36,000  Level FlightAware
05:37AM 47.5610 28.0340 317° Northwest 491 565 36,000  Level FlightAware
05:37AM 47.6300 27.9380 317° Northwest 491 565 36,000  Level FlightAware
05:39AM 47.8140 27.6770 316° Northwest 493 567 36,000  Level FlightAware
05:40AM 47.8700 27.5970 316° Northwest 493 567 36,000  Level FlightAware
05:40AM 47.9250 27.5160 315° West 493 567 36,000  Level FlightAware
05:41AM 47.9810 27.4360 316° Northwest 493 567 36,000  Level FlightAware
05:42AM 48.0370 27.3550 316° Northwest 493 567 36,000  Level FlightAware
05:43AM 48.1070 27.2550 316° Northwest 493 567 36,000  Level FlightAware
05:43AM 48.2370 27.0720 317° Northwest 500 575 36,000  Level FlightAware
05:44AM 48.3380 26.9250 316° Northwest 501 577 36,000  Level FlightAware
05:45AM 48.4100 26.8240 317° Northwest 500 575 36,000  Level FlightAware
05:46AM 48.4620 26.7520 317° Northwest 500 575 36,000  Level FlightAware
05:46AM 48.5380 26.6430 316° Northwest 496 571 36,000  Level FlightAware
05:47AM 48.6200 26.5250 316° Northwest 494 568 36,000  Level FlightAware
05:48AM 48.6810 26.4380 317° Northwest 493 567 36,000  Level FlightAware
05:49AM 48.7750 26.3030 317° Northwest 493 567 36,000  Level FlightAware
05:49AM 48.8380 26.2110 316° Northwest 495 570 36,000  Level FlightAware
05:50AM 48.9280 26.0800 316° Northwest 495 570 36,000  Level FlightAware
05:51AM 49.0090 25.9610 316° Northwest 493 567 36,000  Level FlightAware
05:52AM 49.0700 25.8720 316° Northwest 492 566 36,000  Level FlightAware
05:53AM 49.1630 25.7340 316° Northwest 494 568 36,000  Level FlightAware
05:53AM 49.2390 25.6220 316° Northwest 495 570 36,000  Level FlightAware
05:54AM 49.2970 25.5350 316° Northwest 494 568 36,000  Level FlightAware
05:55AM 49.3730 25.4210 316° Northwest 492 566 36,000  Level FlightAware
05:56AM 49.4400 25.3200 316° Northwest 492 566 36,000  Level FlightAware
05:56AM 49.5120 25.2120 316° Northwest 492 566 36,000  Level FlightAware
05:57AM 49.5810 25.1070 315° West 493 567 36,000  Level FlightAware
05:58AM 49.6510 25.0010 316° Northwest 493 567 36,000  Level FlightAware
05:58AM 49.7260 24.8870 316° Northwest 492 566 36,000  Level FlightAware
05:59AM 49.7900 24.7890 315° West 490 564 36,000  Level FlightAware
06:00AM 49.8550 24.6890 315° West 490 564 36,000  Level FlightAware
06:00AM 49.9230 24.5830 315° West 490 564 36,000  Level FlightAware
06:01AM 49.9870 24.4840 315° West 490 564 36,000  Level FlightAware
06:02AM 50.0610 24.3680 315° West 489 563 36,000  Level FlightAware
06:03AM 50.1210 24.2740 315° West 487 560 36,000  Level FlightAware
06:03AM 50.1890 24.1680 315° West 490 564 36,000  Level FlightAware
06:04AM 50.2620 24.0520 315° West 493 567 36,000  Level FlightAware
06:05AM 50.3220 23.9560 314° West 493 567 36,000  Level FlightAware
06:05AM 50.3890 23.8510 315° West 488 562 36,000  Level FlightAware
06:06AM 50.4540 23.7430 313° West 489 563 36,000  Level FlightAware
06:07AM 50.5180 23.6370 314° West 490 564 36,000  Level FlightAware
06:07AM 50.5830 23.5370 316° Northwest 491 565 36,000  Level FlightAware
06:08AM 50.6560 23.4180 314° West 490 564 36,000  Level FlightAware
06:09AM 50.7030 23.3430 315° West 490 564 36,000  Level FlightAware
06:09AM 50.7670 23.2390 314° West 488 562 36,000  Level FlightAware
06:10AM 50.8280 23.1380 314° West 487 560 36,000  Level FlightAware
06:11AM 50.8970 23.0260 314° West 484 557 36,000  Level FlightAware
06:11AM 50.9590 22.9240 314° West 483 556 36,000  Level FlightAware
06:12AM 51.0280 22.8090 314° West 480 552 36,000  Level FlightAware
06:13AM 51.0910 22.7040 314° West 479 551 36,000  Level FlightAware
06:13AM 51.1480 22.6100 314° West 480 552 36,000  Level FlightAware
06:14AM 51.2180 22.4920 313° West 481 554 36,000  Level FlightAware
06:15AM 51.2810 22.3860 314° West 482 555 36,000  Level FlightAware
06:16AM 51.3420 22.2820 313° West 483 556 36,000  Level FlightAware
06:16AM 51.4120 22.1630 313° West 483 556 36,000  Level FlightAware
06:17AM 51.4950 22.0220 313° West 483 556 36,000  Level FlightAware
06:18AM 51.5560 21.9170 313° West 482 555 36,000  Level FlightAware
06:19AM 51.6220 21.8040 313° West 481 554 36,000  Level FlightAware
06:19AM 51.6840 21.6960 313° West 481 554 36,000  Level FlightAware
06:20AM 51.7540 21.5740 313° West 483 556 36,000  Level FlightAware
06:21AM 51.8200 21.4590 313° West 481 554 36,000  Level FlightAware
06:21AM 51.8800 21.3530 313° West 481 554 36,000  Level FlightAware
06:22AM 51.9400 21.2470 313° West 479 551 36,000  Level FlightAware
06:23AM 52.0000 21.1410 313° West 479 551 36,000  Level FlightAware
06:24AM 52.0690 21.0180 312° West 479 551 36,000  Level FlightAware
06:24AM 52.1290 20.9120 313° West 480 552 36,000  Level FlightAware
06:25AM 52.1950 20.7930 312° West 482 555 36,000  Level FlightAware
06:26AM 52.2540 20.6860 312° West 482 555 36,000  Level FlightAware
06:26AM 52.3210 20.5640 312° West 481 554 36,000  Level FlightAware
06:27AM 52.3810 20.4560 312° West 480 552 36,000  Level FlightAware
06:28AM 52.4400 20.3490 312° West 480 552 36,000  Level FlightAware
06:28AM 52.5070 20.2240 311° West 480 552 36,000  Level FlightAware
06:29AM 52.5680 20.1130 312° West 480 552 36,000  Level FlightAware
06:30AM 52.6310 19.9950 311° West 477 549 36,000  Level FlightAware
06:31AM 52.6900 19.8860 312° West 476 548 36,000  Level FlightAware
06:31AM 52.7480 19.7780 312° West 475 547 36,000  Level FlightAware
06:32AM 52.8110 19.6590 311° West 473 544 36,000  Level FlightAware
06:33AM 52.8720 19.5430 311° West 471 542 36,000  Level FlightAware
06:33AM 52.9340 19.4250 311° West 469 540 36,000  Level FlightAware
06:34AM 52.9910 19.3170 311° West 466 536 36,000  Level FlightAware
06:35AM 53.0450 19.2140 311° West 463 533 36,000  Level FlightAware
06:35AM 53.1100 19.0880 311° West 460 529 36,000  Level FlightAware
06:36AM 53.1660 18.9800 311° West 460 529 36,000  Level FlightAware
06:37AM 53.2270 18.8620 311° West 460 529 36,000  Level FlightAware
06:38AM 53.2810 18.7570 311° West 463 533 36,000  Level FlightAware
06:38AM 53.3390 18.6440 311° West 463 533 36,000  Level FlightAware
06:39AM 53.3990 18.5260 310° West 461 531 36,000  Level FlightAware
06:40AM 53.4520 18.4200 310° West 459 528 36,000  Level FlightAware
06:40AM 53.5100 18.3060 311° West 459 528 36,000  Level FlightAware
06:41AM 53.5730 18.1790 310° West 459 528 36,000  Level FlightAware
06:42AM 53.6270 18.0710 310° West 459 528 36,000  Level FlightAware
06:42AM 53.6860 17.9530 310° West 460 529 36,000  Level FlightAware
06:43AM 53.7420 17.8400 310° West 459 528 36,000  Level FlightAware
06:44AM 53.7950 17.7310 309° West 459 528 36,000  Level FlightAware
06:45AM 53.8570 17.6040 310° West 459 528 36,000  Level FlightAware
06:45AM 53.9140 17.4930 311° West 460 529 36,000  Level FlightAware
06:46AM 53.9760 17.3690 310° West 460 529 36,000  Level FlightAware
06:47AM 54.0290 17.2630 310° West 458 527 36,000  Level FlightAware
06:47AM 54.0850 17.1500 310° West 456 525 36,000  Level FlightAware
06:48AM 54.1450 17.0300 311° West 453 521 36,000  Level FlightAware
06:49AM 54.1990 16.9190 310° West 452 520 36,000  Level FlightAware
06:49AM 54.2570 16.8010 310° West 450 518 36,000  Level FlightAware
06:50AM 54.3100 16.6920 310° West 453 521 36,000  Level FlightAware
06:51AM 54.3740 16.5850 316° Northwest 461 531 36,000  Level FlightAware
06:52AM 54.4420 16.4730 316° Northwest 458 527 36,000  Level FlightAware
06:52AM 54.5000 16.3740 315° West 458 527 36,000  Level FlightAware
06:53AM 54.5620 16.2700 316° Northwest 460 529 36,000  Level FlightAware
06:54AM 54.6310 16.1520 315° West 461 531 36,000  Level FlightAware
06:54AM 54.6880 16.0540 315° West 462 532 36,000  Level FlightAware
06:55AM 54.7580 15.9350 316° Northwest 463 533 36,000  Level FlightAware
06:56AM 54.8200 15.8280 315° West 465 535 36,000  Level FlightAware
06:56AM 54.8800 15.7240 315° West 466 536 36,000  Level FlightAware
06:57AM 54.9480 15.6050 315° West 467 537 36,000  Level FlightAware
06:58AM 55.0050 15.5050 315° West 465 535 36,000  Level FlightAware
06:58AM 55.0680 15.3950 315° West 465 535 36,000  Level FlightAware
06:59AM 55.1350 15.2770 315° West 468 539 36,000  Level FlightAware
07:00AM 55.1870 15.1840 314° West 469 540 36,000  Level FlightAware
07:01AM 55.2650 15.0460 315° West 463 533 36,000  Level FlightAware
07:01AM 55.3250 14.9370 314° West 466 536 36,000  Level FlightAware
07:02AM 55.3950 14.8120 315° West 472 543 36,000  Level FlightAware
07:03AM 55.4600 14.6930 314° West 471 542 36,000  Level FlightAware
07:03AM 55.5140 14.5950 314° West 471 542 36,000  Level FlightAware
07:04AM 55.5820 14.4720 314° West 473 544 36,000  Level FlightAware
07:05AM 55.6520 14.3440 314° West 468 539 36,000  Level FlightAware
07:06AM 55.7130 14.2360 315° West 468 539 36,000  Level FlightAware
07:06AM 55.7840 14.1240 318° Northwest 463 533 36,000  Level FlightAware
07:07AM 55.8470 14.0220 318° Northwest 464 534 36,000  Level FlightAware
07:08AM 55.9110 13.9190 318° Northwest 465 535 36,000  Level FlightAware
07:08AM 55.9830 13.8000 317° Northwest 464 534 36,000  Level FlightAware
07:09AM 56.0460 13.6970 318° Northwest 463 533 36,000  Level FlightAware
07:10AM 56.1080 13.5940 317° Northwest 464 534 36,000  Level FlightAware
07:10AM 56.1820 13.4720 317° Northwest 466 536 36,000  Level FlightAware
07:11AM 56.2390 13.3620 313° West 454 522 36,000  Level FlightAware
07:12AM 56.2980 13.2330 310° West 454 522 36,000  Level FlightAware
07:13AM 56.3520 13.1170 310° West 454 522 36,000  Level FlightAware
07:13AM 56.4130 12.9830 309° West 456 525 36,000  Level FlightAware
07:14AM 56.4650 12.8700 310° West 458 527 36,000  Level FlightAware
07:15AM 56.5200 12.7490 310° West 459 528 36,000  Level FlightAware
07:15AM 56.5790 12.6200 310° West 459 528 36,000  Level FlightAware
07:16AM 56.6320 12.5030 310° West 459 528 36,000  Level FlightAware
07:17AM 56.6870 12.3800 309° West 459 528 36,000  Level FlightAware
07:17AM 56.7490 12.2410 309° West 462 532 36,000  Level FlightAware
07:18AM 56.8000 12.1260 309° West 464 534 36,000  Level FlightAware
07:19AM 56.8610 11.9880 309° West 463 533 36,000  Level FlightAware
07:20AM 56.9150 11.8650 309° West 465 535 36,000  Level FlightAware
07:20AM 56.9690 11.7400 308° West 463 533 36,000  Level FlightAware
07:21AM 57.0300 11.6000 309° West 462 532 36,000  Level FlightAware
07:22AM 57.0820 11.4790 308° West 462 532 36,000  Level FlightAware
07:22AM 57.1350 11.3560 308° West 462 532 36,000  Level FlightAware
07:23AM 57.1930 11.2200 308° West 465 535 36,000  Level FlightAware
07:24AM 57.2460 11.0950 308° West 468 539 36,000  Level FlightAware
07:24AM 57.3060 10.9540 308° West 468 539 36,000  Level FlightAware
07:25AM 57.3610 10.8220 308° West 467 537 36,000  Level FlightAware
07:26AM 57.4190 10.6840 308° West 469 540 36,000  Level FlightAware
07:27AM 57.4730 10.5560 308° West 475 547 36,000  Level FlightAware
07:27AM 57.5260 10.4260 307° West 476 548 36,000  Level FlightAware
07:28AM 57.5870 10.2790 308° West 469 540 36,000  Level FlightAware
07:29AM 57.6390 10.1500 307° West 468 539 36,000  Level FlightAware
07:29AM 57.6920 10.0210 308° West 470 541 36,000  Level FlightAware
07:30AM 57.7500 9.8770 307° West 471 542 36,000  Level FlightAware
07:31AM 57.8020 9.7480 307° West 473 544 36,000  Level FlightAware
07:31AM 57.8620 9.5980 307° West 475 547 36,000  Level FlightAware
07:32AM 57.9130 9.4680 306° West 471 542 36,000  Level FlightAware
07:33AM 57.9660 9.3350 307° West 469 540 36,000  Level FlightAware
07:34AM 58.0230 9.1900 307° West 463 533 36,000  Level FlightAware
07:34AM 58.0720 9.0640 306° West 460 529 36,000  Level FlightAware
07:35AM 58.1300 8.9140 306° West 460 529 36,000 60 Level FlightAware
07:36AM 58.1790 8.7880 306° West 464 534 36,100 360 Climbing FlightAware
07:36AM 58.2310 8.6520 306° West 470 541 36,500 660 Climbing FlightAware
07:37AM 58.2870 8.5060 306° West 466 536 37,100 600 Climbing FlightAware
07:38AM 58.3360 8.3760 306° West 470 541 37,400 480 Climbing FlightAware
07:38AM 58.3960 8.2170 306° West 472 543 37,800 420 Climbing FlightAware
07:39AM 58.4460 8.0830 306° West 465 535 38,000 120 Climbing FlightAware
07:40AM 58.4960 7.9510 306° West 459 528 38,000  Level FlightAware
07:41AM 58.5500 7.8040 305° West 460 529 38,000  Level FlightAware
07:41AM 58.5990 7.6710 305° West 459 528 38,000  Level FlightAware
07:42AM 58.6540 7.5200 305° West 459 528 38,000  Level FlightAware
07:43AM 58.7020 7.3870 305° West 459 528 38,000  Level FlightAware
07:43AM 58.7410 7.2800 305° West 462 532 38,000  Level FlightAware
07:44AM 58.8050 7.1010 305° West 464 534 38,000  Level FlightAware
07:45AM 58.8540 6.9650 305° West 470 541 38,000  Level FlightAware
07:45AM 58.9040 6.8250 305° West 468 539 38,000  Level FlightAware
07:46AM 58.9400 6.7230 304° West 473 544 38,000  Level FlightAware
07:47AM 58.9890 6.5830 304° West 470 541 38,000  Level FlightAware
07:47AM 59.0450 6.4250 305° West 460 529 38,000  Level FlightAware
07:48AM 59.0920 6.2880 304° West 455 524 38,000  Level FlightAware
07:49AM 59.1390 6.1520 304° West 454 522 38,000  Level FlightAware
07:49AM 59.1900 6.0030 304° West 457 526 38,000  Level FlightAware
07:50AM 59.2380 5.8630 304° West 462 532 38,000  Level FlightAware
07:51AM 59.2900 5.7090 304° West 464 534 38,000  Level FlightAware
07:51AM 59.3370 5.5710 304° West 459 528 38,000 -1,500 Level FlightAware
07:52AM 59.3629 5.4934 304° West 498 573 36,500 -2,400 Descending FlightAware UK
07:52AM 59.3828 5.4305 302° West 494 568 36,500 4,500 Level FlightAware UK
07:52AM 59.3830 5.4340 302° West 456 525 38,000  Climbing FlightAware
07:52AM 59.4103 5.3474 302° West 492 566 36,500  Descending FlightAware UK
07:53AM 59.4360 5.2750 302° West 454 522 38,000  Climbing FlightAware
07:53AM 59.4604 5.2037 302° West 490 564 36,500  Descending FlightAware UK
07:54AM 59.4860 5.1220 302° West 454 522 38,000  Climbing FlightAware
07:54AM 59.5148 5.0380 302° West 488 562 36,500  Descending FlightAware UK
07:54AM 59.5320 4.9830 302° West 454 522 38,000 1,380 Climbing FlightAware
07:55AM 59.5840 4.8240 303° West 457 526 38,000 -1,260 Level FlightAware
07:55AM 59.6160 4.7256 303° West 492 566 36,500  Descending FlightAware UK
07:56AM 59.6280 4.6880 303° West 457 526 38,000  Climbing FlightAware
07:56AM 59.6704 4.5573 303° West 492 566 36,500  Descending FlightAware UK
07:56AM 59.6730 4.5490 303° West 456 525 38,000 1,800 Climbing FlightAware
07:57AM 59.7260 4.3840 303° West 455 524 38,000 -1,260 Level FlightAware
07:58AM 59.7573 4.2824 303° West 488 562 36,500  Descending FlightAware UK
07:58AM 59.7690 4.2480 303° West 454 522 38,000 1,680 Climbing FlightAware
07:58AM 59.8120 4.1110 302° West 455 524 38,000 -1,260 Level FlightAware
07:59AM 59.8507 3.9863 302° West 488 562 36,500 -1,800 Descending FlightAware UK
07:59AM 59.8711 3.9227 303° West 488 562 36,500 3,180 Level FlightAware UK
07:59AM 59.8800 3.8940 303° West 455 524 38,000  Climbing FlightAware
08:00AM 59.9104 3.7947 303° West 486 559 36,500  Descending FlightAware UK
08:00AM 59.9260 3.7490 303° West 456 525 38,000  Climbing FlightAware
08:00AM 59.9444 3.6882 303° West 486 559 36,500  Descending FlightAware UK
08:01AM 59.9740 3.5920 303° West 458 527 38,000  Climbing FlightAware
08:01AM 60.0172 3.4521 303° West 490 564 36,500  Descending FlightAware UK
08:02AM 60.0310 3.4060 303° West 460 529 38,000  Climbing FlightAware
08:02AM 60.0703 3.2781 303° West 488 562 36,500 -1,920 Descending FlightAware UK
08:03AM 60.0902 3.2125 301° West 492 566 36,500  Level FlightAware UK
08:03AM 60.1431 3.0371 301° West 488 562 36,500  Level FlightAware UK
08:04AM 60.1630 2.9715 301° West 492 566 36,500 360 Level FlightAware UK
08:07AM 60.3940 2.1890 301° West 455 524 38,000 300 Climbing FlightAware
08:08AM 60.4340 2.0510 300° West 455 524 38,000  Level FlightAware
08:09AM 60.5080 1.7920 300° West 453 521 38,000  Level FlightAware
08:10AM 60.5460 1.6600 300° West 453 521 38,000  Level FlightAware
08:10AM 60.5890 1.5100 300° West 452 520 38,000  Level FlightAware
08:11AM 60.6340 1.3470 299° West 451 519 38,000  Level FlightAware
08:12AM 60.6750 1.2000 300° West 452 520 38,000  Level FlightAware
08:13AM 60.7190 1.0410 300° West 452 520 38,000  Level FlightAware
08:13AM 60.7660 0.8720 300° West 447 514 38,000  Level FlightAware
08:14AM 60.8060 0.7260 299° West 447 514 38,000  Level FlightAware
08:15AM 60.8520 0.5560 299° West 444 511 38,000  Level FlightAware
08:15AM 60.8910 0.4090 299° West 442 509 38,000  Level FlightAware
08:16AM 60.9350 0.2450 299° West 443 510 38,000  Level FlightAware
08:17AM 60.9810 0.0690 298° West 441 507 38,000  Level FlightAware
08:18AM 61.0140 -0.0570 298° West 441 507 38,000  Level FlightAware
08:18AM 61.0540 -0.2150 298° West 441 507 38,000  Level FlightAware
08:19AM 61.0870 -0.3420 298° West 441 507 38,000  Level FlightAware
08:20AM 61.1190 -0.4680 298° West 441 507 38,000  Level FlightAware
08:20AM 61.1520 -0.5950 298° West 441 507 38,000  Level FlightAware
08:21AM 61.1850 -0.7220 298° West 441 507 38,000  Level FlightAware
08:22AM 61.2170 -0.8500 297° West 441 507 38,000  Level FlightAware
08:23AM 61.2580 -1.0090 298° West 441 507 38,000  Level FlightAware
08:23AM 61.2900 -1.1360 298° West 441 507 38,000  Level FlightAware
08:24AM 61.2060 -1.5320 246° West 38,000  Level FlightAware
08:26AM 61.2397 -1.9985 279° West  Level Estimated
08:27AM 61.2561 -2.2360 278° West  Level Estimated
08:28AM 61.2722 -2.4739 278° West  Level Estimated
08:29AM 61.2879 -2.7119 278° West  Level Estimated
08:30AM 61.3031 -2.9502 278° West  Level Estimated
08:31AM 61.3180 -3.1887 277° West  Level Estimated
08:32AM 61.3324 -3.4275 277° West  Level Estimated
08:32AM 61.4430 -3.5130 277° West 438 504 38,000  Level FlightAware
08:32AM 61.4580 -3.6530 283° West 438 504 38,000  Level FlightAware
08:33AM 61.4820 -3.8630 284° West 437 503 38,000  Level FlightAware
08:34AM 61.4970 -4.0070 282° West 438 504 38,000  Level FlightAware
08:34AM 61.5140 -4.1770 282° West 438 504 38,000  Level FlightAware
08:35AM 61.5290 -4.3180 283° West 438 504 38,000  Level FlightAware
08:36AM 61.5430 -4.4590 282° West 438 504 38,000  Level FlightAware
08:37AM 61.5610 -4.6360 282° West 438 504 38,000  Level FlightAware
08:37AM 61.5750 -4.7780 282° West 438 504 38,000  Level FlightAware
08:38AM 61.5890 -4.9190 282° West 438 504 38,000  Level FlightAware
08:39AM 61.6290 -5.3010 283° West 436 502 38,000  Level FlightAware
08:40AM 61.6570 -5.5840 282° West 440 506 38,000  Level FlightAware
08:41AM 61.6770 -5.7980 281° West 440 506 38,000  Level FlightAware
08:42AM 61.6940 -5.9850 281° West 435 501 38,000  Level FlightAware
08:42AM 61.7090 -6.1530 281° West 432 497 38,000  Level FlightAware
08:43AM 61.7240 -6.3250 281° West 432 497 38,000  Level FlightAware
08:44AM 61.7400 -6.4950 281° West 432 497 38,000  Level FlightAware
08:44AM 61.7560 -6.6800 280° West 435 501 38,000  Level FlightAware
08:45AM 61.7690 -6.8330 280° West 436 502 38,000  Level FlightAware
08:46AM 61.7850 -7.0180 280° West 429 494 38,000  Level FlightAware
08:46AM 61.8000 -7.2010 280° West 428 493 38,000  Level FlightAware
08:47AM 61.8150 -7.3910 280° West 429 494 38,000  Level FlightAware
08:48AM 61.8290 -7.5580 280° West 432 497 38,000  Level FlightAware
08:49AM 61.8420 -7.7220 280° West 433 498 38,000  Level FlightAware
08:49AM 61.8560 -7.9110 279° West 432 497 38,000  Level FlightAware
08:50AM 61.8690 -8.0730 280° West 430 495 38,000  Level FlightAware
08:51AM 61.8810 -8.2390 279° West 430 495 38,000  Level FlightAware
08:51AM 61.8920 -8.3810 279° West 430 495 38,000  Level FlightAware
08:52AM 61.9070 -8.5910 279° West 428 493 38,000  Level FlightAware
08:53AM 61.9200 -8.7810 278° West 429 494 38,000  Level FlightAware
08:54AM 61.9330 -8.9750 278° West 429 494 38,000  Level FlightAware
08:54AM 61.9430 -9.1170 279° West 429 494 38,000  Level FlightAware
08:55AM 61.9590 -9.3450 279° West 427 491 38,000  Level FlightAware
08:56AM 61.9700 -9.5270 277° West 433 498 38,000  Level FlightAware
08:56AM 61.9810 -9.6930 278° West 434 499 38,000  Level FlightAware
08:57AM 61.9930 -9.8780 278° West 430 495 38,000  Level FlightAware
08:58AM 62.0030 -10.0460 277° West 429 494 38,000  Level FlightAware
08:59AM 62.0090 -10.2380 274° West 424 488 38,000  Level FlightAware
08:59AM 62.0140 -10.3870 274° West 423 487 38,000  Level FlightAware
09:00AM 62.0200 -10.5940 274° West 421 484 38,000  Level FlightAware
09:01AM 62.0260 -10.7600 274° West 418 481 38,000  Level FlightAware
09:01AM 62.0310 -10.9240 274° West 420 483 38,000  Level FlightAware
09:02AM 62.0360 -11.1070 273° West 419 482 38,000  Level FlightAware
09:03AM 62.0400 -11.2690 273° West 417 480 38,000  Level FlightAware
09:03AM 62.0450 -11.4330 274° West 418 481 38,000  Level FlightAware
09:04AM 62.0490 -11.6220 273° West 420 483 38,000  Level FlightAware
09:05AM 62.0530 -11.7880 273° West 419 482 38,000  Level FlightAware
09:06AM 62.0580 -11.9690 273° West 420 483 38,000  Level FlightAware
09:06AM 62.0610 -12.1330 272° West 421 484 38,000  Level FlightAware
09:07AM 62.0640 -12.3000 272° West 422 486 38,000  Level FlightAware
09:08AM 62.0680 -12.4900 273° West 424 488 38,000  Level FlightAware
09:08AM 62.0710 -12.6510 272° West 425 489 38,000  Level FlightAware
09:09AM 62.0740 -12.8400 272° West 426 490 38,000  Level FlightAware
09:10AM 62.0760 -13.0070 272° West 426 490 38,000  Level FlightAware
09:11AM 62.0790 -13.1990 272° West 427 491 38,000  Level FlightAware
09:11AM 62.0810 -13.3620 272° West 427 491 38,000  Level FlightAware
09:12AM 62.0830 -13.5340 271° West 426 490 38,000  Level FlightAware
09:13AM 62.0850 -13.7190 271° West 424 488 38,000  Level FlightAware
09:13AM 62.0860 -13.8880 271° West 421 484 38,000  Level FlightAware
09:14AM 62.0880 -14.0740 271° West 421 484 38,000  Level FlightAware
09:15AM 62.0890 -14.2430 271° West 423 487 38,000  Level FlightAware
09:15AM 62.0890 -14.4090 270° West 423 487 38,000  Level FlightAware
09:16AM 62.0900 -14.5920 271° West 421 484 38,000  Level FlightAware
09:17AM 62.0900 -14.7400 270° West 421 484 38,000  Level FlightAware
09:18AM 62.0910 -14.9440 271° West 419 482 38,000  Level FlightAware
09:18AM 62.0910 -15.0540 270° West 419 482 38,000  Level FlightAware
09:19AM 62.0910 -15.2300 270° West 419 482 38,000  Level FlightAware
09:20AM 62.0900 -15.4530 270° West 416 479 38,000  Level FlightAware
09:20AM 62.0890 -15.6020 269° West 416 479 38,000  Level FlightAware
09:21AM 62.0880 -15.7830 269° West 416 479 38,000  Level FlightAware
09:22AM 62.0870 -15.9700 269° West 418 481 38,000  Level FlightAware
09:22AM 62.0860 -16.1290 269° West 420 483 38,000  Level FlightAware
09:23AM 62.0840 -16.3160 269° West 422 486 38,000  Level FlightAware
09:24AM 62.0830 -16.4830 269° West 422 486 38,000  Level FlightAware
09:25AM 62.0810 -16.6660 269° West 423 487 38,000  Level FlightAware
09:25AM 62.0790 -16.8330 269° West 425 489 38,000  Level FlightAware
09:26AM 62.0770 -16.9590 268° West 426 490 38,000  Level FlightAware
09:26AM 62.0740 -17.1270 268° West 429 494 38,000  Level FlightAware
09:27AM 62.0720 -17.3020 269° West 432 497 38,000  Level FlightAware
09:28AM 62.0680 -17.4910 267° West 431 496 38,000  Level FlightAware
09:28AM 62.0650 -17.6570 268° West 431 496 38,000  Level FlightAware
09:29AM 62.0620 -17.8280 268° West 434 499 38,000  Level FlightAware
09:30AM 62.0580 -18.0270 268° West 437 503 38,000  Level FlightAware
09:31AM 62.0540 -18.1890 267° West 436 502 38,000  Level FlightAware
09:31AM 62.0490 -18.3840 267° West 432 497 38,000  Level FlightAware
09:32AM 62.0450 -18.5550 267° West 431 496 38,000  Level FlightAware
09:33AM 62.0410 -18.7220 267° West 429 494 38,000  Level FlightAware
09:33AM 62.0350 -18.9160 266° West 429 494 38,000  Level FlightAware
09:34AM 62.0300 -19.0840 266° West 428 493 38,000  Level FlightAware
09:35AM 62.0260 -19.2280 267° West 428 493 38,000  Level FlightAware
09:35AM 62.0220 -19.3540 266° West 427 491 38,000  Level FlightAware
09:36AM 62.0170 -19.5170 266° West 427 491 38,000  Level FlightAware
09:37AM 62.0100 -19.7120 266° West 428 493 38,000  Level FlightAware
09:37AM 62.0050 -19.8740 266° West 428 493 38,000  Level FlightAware
09:38AM 62.0020 -20.0470 268° West 432 497 38,000  Level FlightAware
09:38AM 62.0070 -20.1910 274° West 434 499 38,000  Level FlightAware
09:39AM 62.0140 -20.4050 274° West 433 498 38,000  Level FlightAware
09:40AM 62.0200 -20.5750 274° West 433 498 38,000  Level FlightAware
09:41AM 62.0260 -20.7620 274° West 434 499 38,000  Level FlightAware
09:41AM 62.0310 -20.9400 274° West 436 502 38,000  Level FlightAware
09:42AM 62.0360 -21.1310 273° West 440 506 38,000  Level FlightAware
09:43AM 62.0410 -21.3030 274° West 442 509 38,000  Level FlightAware
09:43AM 62.0460 -21.4760 274° West 442 509 38,000  Level FlightAware
09:44AM 62.0510 -21.6740 273° West 440 506 38,000  Level FlightAware
09:45AM 62.0550 -21.8470 273° West 439 505 38,000  Level FlightAware
09:46AM 62.0590 -22.0350 273° West 438 504 38,000  Level FlightAware
09:46AM 62.0620 -22.2070 272° West 437 503 38,000  Level FlightAware
09:47AM 62.0660 -22.3790 273° West 438 504 38,000  Level FlightAware
09:48AM 62.0690 -22.5780 272° West 440 506 38,000  Level FlightAware
09:48AM 62.0720 -22.7510 272° West 441 507 38,000  Level FlightAware
09:49AM 62.0750 -22.9430 272° West 443 510 38,000  Level FlightAware
09:50AM 62.0780 -23.1130 272° West 443 510 38,000  Level FlightAware
09:51AM 62.0800 -23.3220 271° West 443 510 38,000  Level FlightAware
09:51AM 62.0830 -23.5500 272° West 445 512 38,000  Level FlightAware
09:52AM 62.0850 -23.7300 271° West 447 514 38,000  Level FlightAware
09:53AM 62.0860 -23.9020 271° West 446 513 38,000  Level FlightAware
09:54AM 62.0880 -24.1040 271° West 445 512 38,000  Level FlightAware
09:54AM 62.0890 -24.2730 271° West 445 512 38,000  Level FlightAware
09:55AM 62.0900 -24.4740 271° West 447 514 38,000  Level FlightAware
09:56AM 62.0900 -24.6400 270° West 449 517 38,000  Level FlightAware
09:56AM 62.0900 -24.8040 270° West 449 517 38,000  Level FlightAware
09:57AM 62.0900 -24.9550 270° West 449 517 38,000  Level FlightAware
09:58AM 62.0900 -25.1060 270° West 449 517 38,000  Level FlightAware
09:58AM 62.0900 -25.4050 270° West 452 520 38,000  Level FlightAware
09:59AM 62.0890 -25.5810 269° West 455 524 38,000  Level FlightAware
10:00AM 62.0890 -25.7810 270° West 457 526 38,000  Level FlightAware
10:01AM 62.0870 -25.9580 269° West 458 527 38,000  Level FlightAware
10:01AM 62.0860 -26.1390 269° West 457 526 38,000  Level FlightAware
10:02AM 62.0850 -26.3040 269° West 458 527 38,000  Level FlightAware
10:03AM 62.0810 -26.4920 267° West 458 527 38,000  Level FlightAware
10:03AM 62.0790 -26.6460 268° West 458 527 38,000  Level FlightAware
10:04AM 62.0780 -26.9080 270° West 462 532 38,000  Level FlightAware
10:05AM 62.0750 -27.0890 268° West 461 531 38,000  Level FlightAware
10:05AM 62.0720 -27.2970 268° West 459 528 38,000  Level FlightAware
10:06AM 62.0690 -27.4750 268° West 460 529 38,000  Level FlightAware
10:07AM 62.0650 -27.6540 267° West 460 529 38,000  Level FlightAware
10:08AM 62.0610 -27.8650 268° West 460 529 38,000  Level FlightAware
10:08AM 62.0560 -28.0680 267° West 461 531 38,000  Level FlightAware
10:09AM 62.0530 -28.2230 268° West 461 531 38,000  Level FlightAware
10:10AM 62.0480 -28.4160 267° West 461 531 38,000  Level FlightAware
10:11AM 62.0440 -28.5710 267° West 461 531 38,000  Level FlightAware
10:11AM 62.0400 -28.7250 267° West 461 531 38,000  Level FlightAware
10:12AM 62.0360 -28.8790 267° West 461 531 38,000  Level FlightAware
10:13AM 62.0320 -29.0340 267° West 461 531 38,000  Level FlightAware
10:13AM 62.0280 -29.2270 268° West 461 531 38,000  Level FlightAware
10:14AM 62.0240 -29.3810 267° West 461 531 38,000  Level FlightAware
10:15AM 62.0200 -29.5360 267° West 461 531 38,000  Level FlightAware
10:15AM 62.0160 -29.6900 267° West 461 531 38,000  Level FlightAware
10:16AM 62.0120 -29.8440 267° West 461 531 38,000  Level FlightAware
10:17AM 62.0080 -30.0370 268° West 461 531 38,000  Level FlightAware
10:18AM 62.0040 -30.1910 267° West 461 531 38,000  Level FlightAware
10:20AM 61.9215 -30.6443 249° West  Level FlightAware Approximate
10:21AM 61.8790 -30.8738 249° West  Level FlightAware Approximate
10:22AM 61.8362 -31.1027 248° West  Level FlightAware Approximate
10:23AM 61.7929 -31.3309 248° West  Level FlightAware Approximate
10:24AM 61.7492 -31.5585 248° West  Level FlightAware Approximate
10:25AM 61.7052 -31.7855 248° West  Level FlightAware Approximate
10:26AM 61.6608 -32.0118 248° West  Level FlightAware Approximate
10:27AM 61.6210 -32.2420 251° West  Level FlightAware Approximate
10:28AM 61.5825 -32.4724 251° West  Level FlightAware Approximate
10:29AM 61.5436 -32.7023 251° West  Level FlightAware Approximate
10:30AM 61.5043 -32.9316 250° West  Level FlightAware Approximate
10:31AM 61.4647 -33.1603 250° West  Level FlightAware Approximate
10:32AM 61.4246 -33.3884 250° West  Level FlightAware Approximate
10:33AM 61.3830 -33.6150 249° West  Level FlightAware Approximate
10:34AM 61.3407 -33.8407 249° West  Level FlightAware Approximate
10:35AM 61.2981 -34.0659 249° West  Level FlightAware Approximate
10:36AM 61.2551 -34.2904 248° West  Level FlightAware Approximate
10:37AM 61.2117 -34.5143 248° West  Level FlightAware Approximate
10:38AM 61.1679 -34.7376 248° West  Level FlightAware Approximate
10:39AM 61.1238 -34.9603 248° West  Level FlightAware Approximate
10:39AM 60.9333 -35.7167 247° West 470 541 38,000  Level Gander Center
10:40AM 61.0793 -35.1823 248° West  Level FlightAware Approximate
10:40AM 60.8833 -35.9333 245° Southwest 470 541 38,000  Level Gander Center
10:41AM 61.0344 -35.4037 247° West  Level FlightAware Approximate
10:41AM 60.8333 -36.2000 249° West 470 541 38,000  Level Gander Center
10:42AM 60.9892 -35.6245 247° West  Level FlightAware Approximate
10:42AM 60.7833 -36.4500 248° West 470 541 38,000  Level Gander Center
10:43AM 60.9436 -35.8447 247° West  Level FlightAware Approximate
10:43AM 60.7500 -36.6667 253° West 470 541 38,000  Level Gander Center
10:44AM 60.8977 -36.0642 247° West  Level FlightAware Approximate
10:44AM 60.6833 -36.9333 243° Southwest 460 529 38,000  Level Gander Center
10:45AM 60.8514 -36.2831 247° West  Level FlightAware Approximate
10:45AM 60.6333 -37.1333 243° Southwest 460 529 38,000  Level Gander Center
10:46AM 60.5833 -37.4000 249° West 460 529 38,000  Level Gander Center
10:47AM 60.5333 -37.6167 245° Southwest 460 529 38,000  Level Gander Center
10:48AM 60.4667 -37.8667 242° Southwest 460 529 38,000  Level Gander Center
10:49AM 60.4167 -38.0833 245° Southwest 460 529 38,000  Level Gander Center
10:50AM 60.3667 -38.3167 247° West 460 529 38,000  Level Gander Center
10:51AM 60.3000 -38.5500 240° Southwest 460 529 38,000  Level Gander Center
10:52AM 60.2667 -38.7833 254° West 460 529 38,000  Level Gander Center
10:53AM 60.2167 -39.0000 245° Southwest 460 529 38,000  Level Gander Center
10:54AM 60.1500 -39.2500 242° Southwest 460 529 38,000  Level Gander Center
10:55AM 60.1000 -39.4500 243° Southwest 460 529 38,000  Level Gander Center
10:56AM 60.0500 -39.7000 248° West 460 529 38,000  Level Gander Center
10:57AM 59.9833 -39.9167 238° Southwest 460 529 38,000  Level Gander Center
10:58AM 59.9167 -40.1333 239° Southwest 460 529 38,000  Level Gander Center
10:59AM 59.8333 -40.3500 233° Southwest 460 529 38,000  Level Gander Center
11:00AM 59.7667 -40.5500 237° Southwest 460 529 38,000  Level Gander Center
11:01AM 59.7000 -40.7667 239° Southwest 460 529 38,000  Level Gander Center
11:02AM 59.6333 -40.9500 234° Southwest 460 529 38,000  Level Gander Center
11:03AM 59.5667 -41.1500 237° Southwest 460 529 38,000  Level Gander Center
11:04AM 59.5000 -41.3667 239° Southwest 460 529 38,000  Level Gander Center
11:05AM 59.4333 -41.5833 239° Southwest 460 529 38,000  Level Gander Center
11:06AM 59.3500 -41.7833 231° Southwest 450 518 38,000  Level Gander Center
11:07AM 59.2833 -42.0000 239° Southwest 460 529 38,000  Level Gander Center
11:08AM 59.2167 -42.2000 237° Southwest 460 529 38,000 360 Level Gander Center
11:09AM 59.1333 -42.4167 233° Southwest 460 529 38,800 900 Climbing Gander Center
11:10AM 59.0833 -42.5833 240° Southwest 450 518 39,800 600 Climbing Gander Center
11:11AM 59.0000 -42.7833 231° Southwest 450 518 40,000 60 Climbing Gander Center
11:12AM 58.9333 -42.9833 237° Southwest 450 518 40,000  Level Gander Center
11:13AM 58.8500 -43.2000 233° Southwest 450 518 40,000  Level Gander Center
11:14AM 58.8000 -43.3833 242° Southwest 450 518 40,000  Level Gander Center
11:15AM 58.7167 -43.5667 229° Southwest 450 518 40,000  Level Gander Center
11:16AM 58.6333 -43.7667 231° Southwest 450 518 40,000  Level Gander Center
11:17AM 58.5667 -43.9667 237° Southwest 440 506 40,000  Level Gander Center
11:18AM 58.5000 -44.1167 230° Southwest 440 506 40,000  Level Gander Center
11:19AM 58.4333 -44.3167 238° Southwest 440 506 40,000  Level Gander Center
11:20AM 58.3500 -44.5167 232° Southwest 440 506 40,000  Level Gander Center
11:21AM 58.2833 -44.6833 233° Southwest 440 506 40,000  Level Gander Center
11:22AM 58.2000 -44.8833 232° Southwest 440 506 40,000  Level Gander Center
11:23AM 58.1500 -45.0667 243° Southwest 440 506 40,000  Level Gander Center
11:24AM 58.0667 -45.2667 232° Southwest 440 506 40,000  Level Gander Center
11:25AM 57.9833 -45.4333 227° Southwest 440 506 40,000  Level Gander Center
11:26AM 57.9167 -45.6167 236° Southwest 440 506 40,000  Level Gander Center
11:27AM 57.8500 -45.8000 236° Southwest 440 506 40,000  Level Gander Center
11:28AM 57.7667 -45.9667 227° Southwest 440 506 40,000  Level Gander Center
11:29AM 57.7000 -46.1500 236° Southwest 440 506 40,000  Level Gander Center
11:30AM 57.6167 -46.3500 232° Southwest 440 506 40,000  Level Gander Center
11:31AM 57.5333 -46.5333 230° Southwest 440 506 40,000  Level Gander Center
11:32AM 57.4500 -46.7000 227° Southwest 440 506 40,000  Level Gander Center
11:33AM 57.4000 -46.8833 243° Southwest 440 506 40,000  Level Gander Center
11:34AM 57.3167 -47.0667 230° Southwest 440 506 40,000  Level Gander Center
11:35AM 57.2333 -47.2167 224° Southwest 440 506 40,000  Level Gander Center
11:36AM 57.1667 -47.4000 236° Southwest 440 506 40,000  Level Gander Center
11:37AM 57.0833 -47.5833 230° Southwest 440 506 40,000  Level Gander Center
11:38AM 57.0167 -47.7333 231° Southwest 440 506 40,000  Level Gander Center
11:39AM 56.9333 -47.9167 230° Southwest 440 506 40,000  Level Gander Center
11:40AM 56.8500 -48.1000 230° Southwest 440 506 40,000  Level Gander Center
11:41AM 56.7833 -48.2500 231° Southwest 440 506 40,000  Level Gander Center
11:42AM 56.7000 -48.4333 230° Southwest 440 506 40,000  Level Gander Center
11:43AM 56.6333 -48.6167 237° Southwest 440 506 40,000  Level Gander Center
11:44AM 56.5500 -48.7667 225° Southwest 440 506 40,000  Level Gander Center
11:45AM 56.4667 -48.9333 228° Southwest 440 506 40,000  Level Gander Center
11:47AM 56.3682 -49.1624 232° Southwest  Level FlightAware Approximate
11:54AM 55.8019 -50.2993 220° Southwest  Level FlightAware Approximate
11:55AM 55.7086 -50.4388 220° Southwest  Level FlightAware Approximate
11:56AM 55.6153 -50.5775 220° Southwest  Level FlightAware Approximate
11:57AM 55.5262 -50.7091 220° Southwest  Level FlightAware Approximate
11:58AM 55.4370 -50.8400 220° Southwest  Level FlightAware Approximate
11:59AM 55.3476 -50.9704 220° Southwest  Level FlightAware Approximate
12:00PM 55.2581 -51.1001 220° Southwest  Level FlightAware Approximate
12:01PM 55.1685 -51.2293 219° Southwest  Level FlightAware Approximate
12:02PM 55.0787 -51.3579 219° Southwest  Level FlightAware Approximate
12:03PM 54.9888 -51.4860 219° Southwest  Level FlightAware Approximate
12:04PM 54.8987 -51.6134 219° Southwest  Level FlightAware Approximate
12:05PM 54.8086 -51.7403 219° Southwest  Level FlightAware Approximate
12:06PM 54.7183 -51.8666 219° Southwest  Level FlightAware Approximate
12:07PM 54.6278 -51.9924 219° Southwest  Level FlightAware Approximate
12:08PM 54.5373 -52.1178 219° Southwest  Level FlightAware Approximate
12:09PM 54.4473 -52.2438 219° Southwest  Level FlightAware Approximate
12:10PM 54.3571 -52.3692 219° Southwest  Level FlightAware Approximate
12:11PM 54.2668 -52.4941 219° Southwest  Level FlightAware Approximate
12:12PM 54.1763 -52.6185 219° Southwest  Level FlightAware Approximate
12:13PM 54.0858 -52.7423 219° Southwest  Level FlightAware Approximate
12:14PM 53.9950 -52.8655 219° Southwest  Level FlightAware Approximate
12:15PM 53.9042 -52.9883 219° Southwest  Level FlightAware Approximate
12:16PM 53.8133 -53.1105 218° Southwest  Level FlightAware Approximate
12:16PM 53.6833 -53.2333 218° Southwest 410 472 40,000  Level Gander Center
12:17PM 53.7222 -53.2321 218° Southwest  Level FlightAware Approximate
12:17PM 53.5833 -53.3500 215° Southwest 410 472 40,000  Level Gander Center
12:18PM 53.6310 -53.3533 218° Southwest  Level FlightAware Approximate
12:18PM 53.5167 -53.4500 222° Southwest 410 472 40,000  Level Gander Center
12:19PM 53.5397 -53.4739 218° Southwest  Level FlightAware Approximate
12:19PM 53.4167 -53.5833 218° Southwest 410 472 40,000  Level Gander Center
12:20PM 53.4482 -53.5940 218° Southwest  Level FlightAware Approximate
12:20PM 53.3333 -53.7167 224° Southwest 410 472 40,000  Level Gander Center
12:21PM 53.3567 -53.7136 218° Southwest  Level FlightAware Approximate
12:21PM 53.2333 -53.8500 219° Southwest 420 483 40,000  Level Gander Center
12:22PM 53.1333 -53.9500 211° Southwest 420 483 40,000  Level Gander Center
12:23PM 53.0667 -54.1000 234° Southwest 420 483 40,000  Level Gander Center
12:24PM 53.0000 -54.2667 236° Southwest 400 460 40,000  Level Gander Center
12:25PM 52.9500 -54.4167 241° Southwest 390 449 40,000 -780 Level Gander Center
12:26PM 52.8833 -54.5667 234° Southwest 410 472 38,500 -1,020 Descending Gander Center
12:27PM 52.8167 -54.7167 234° Southwest 410 472 38,000 -300 Descending Gander Center
12:28PM 52.7333 -54.8500 224° Southwest 400 460 38,000  Level Gander Center
12:29PM 52.6667 -54.9833 231° Southwest 400 460 38,000  Level Gander Center
12:30PM 52.5833 -55.1167 224° Southwest 400 460 38,000  Level Gander Center
12:31PM 52.5333 -55.2667 241° Southwest 400 460 38,000  Level Gander Center
12:32PM 52.4500 -55.4000 224° Southwest 390 449 38,000  Level Gander Center
12:33PM 52.3667 -55.5333 224° Southwest 400 460 38,000  Level Gander Center
12:33PM 52.3500 -55.5500 211° Southwest 400 460 38,000  Level Gander Center
12:34PM 52.2667 -55.7000 228° Southwest 400 460 38,000  Level Gander Center
12:35PM 52.2167 -55.8000 231° Southwest 390 449 38,000  Level Gander Center
12:36PM 52.1500 -55.9167 227° Southwest 400 460 38,000  Level Gander Center
12:36PM 52.1167 -55.9667 223° Southwest 400 460 38,000  Level Gander Center
12:37PM 52.0500 -56.1167 234° Southwest 390 449 38,000  Level Gander Center
12:38PM 52.0000 -56.2000 226° Southwest 400 460 38,000  Level Gander Center
12:39PM 51.9167 -56.3167 221° Southwest 400 460 38,000  Level Gander Center
12:40PM 51.8667 -56.4667 242° Southwest 390 449 38,000  Level Gander Center
12:41PM 51.7833 -56.5833 221° Southwest 400 460 38,000  Level Gander Center
12:42PM 51.7000 -56.7167 225° Southwest 400 460 38,000  Level Gander Center
12:43PM 51.6167 -56.8667 228° Southwest 420 483 38,000  Level Gander Center
12:43PM 51.6000 -56.9000 231° Southwest 420 483 38,000  Level Gander Center
12:44PM 51.5500 -56.9833 226° Southwest 400 460 38,000  Level Moncton Center
12:45PM 51.4667 -57.1167 225° Southwest 400 460 38,000  Level Moncton Center
12:45PM 51.4500 -57.1500 231° Southwest 400 460 38,000  Level Gander Center
12:46PM 51.3667 -57.2833 225° Southwest 410 472 38,000  Level Gander Center
12:47PM 51.3167 -57.3667 226° Southwest 400 460 38,000  Level Gander Center
12:48PM 51.2500 -57.5167 235° Southwest 400 460 38,000  Level Gander Center
12:49PM 51.1667 -57.6333 221° Southwest 400 460 38,000  Level Gander Center
12:50PM 51.0500 -57.8167 225° Southwest 410 472 38,000  Level Gander Center
12:51PM 51.0000 -57.9000 226° Southwest 400 460 38,000  Level Gander Center
12:52PM 50.9500 -58.0167 236° Southwest 410 472 38,000  Level Gander Center
12:53PM 50.8667 -58.1833 232° Southwest 400 460 38,000  Level Gander Center
12:54PM 50.8000 -58.3167 232° Southwest 400 460 38,000  Level Gander Center
12:55PM 50.7333 -58.4500 232° Southwest 410 472 38,000  Level Gander Center
12:56PM 50.6667 -58.5833 232° Southwest 400 460 38,000  Level Gander Center
12:57PM 50.6167 -58.7333 242° Southwest 400 460 38,000  Level Gander Center
12:58PM 50.5500 -58.8667 232° Southwest 400 460 38,000  Level Gander Center
12:59PM 50.4667 -59.0000 226° Southwest 400 460 38,000  Level Gander Center
01:00PM 50.4000 -59.1500 235° Southwest 400 460 38,000  Level Gander Center
01:01PM 50.3333 -59.2833 232° Southwest 400 460 38,000  Level Gander Center
01:02PM 50.2667 -59.4167 232° Southwest 390 449 38,000  Level Gander Center
01:03PM 50.2000 -59.5500 232° Southwest 400 460 38,000  Level Gander Center
01:04PM 50.1500 -59.6833 240° Southwest 390 449 38,000  Level Gander Center
01:05PM 50.0667 -59.8167 226° Southwest 400 460 38,000  Level Gander Center
01:06PM 50.0167 -59.9500 240° Southwest 390 449 38,000  Level Gander Center
01:07PM 49.9333 -60.0833 226° Southwest 400 460 38,000  Level Gander Center
01:08PM 49.8667 -60.2167 232° Southwest 400 460 38,000  Level Gander Center
01:09PM 49.8000 -60.3500 232° Southwest 400 460 38,000  Level Gander Center
01:10PM 49.7333 -60.5000 236° Southwest 400 460 38,000  Level Gander Center
01:11PM 49.6667 -60.6333 232° Southwest 400 460 38,000  Level Gander Center
01:12PM 49.5833 -60.7667 226° Southwest 400 460 38,000  Level Gander Center
01:13PM 49.5333 -60.9000 240° Southwest 400 460 38,000  Level Gander Center
01:14PM 49.4500 -61.0167 222° Southwest 390 449 38,000  Level Gander Center
01:15PM 49.3833 -61.1500 233° Southwest 390 449 38,000  Level Gander Center
01:16PM 49.3167 -61.3000 236° Southwest 400 460 38,000  Level Gander Center
01:17PM 49.2333 -61.4333 226° Southwest 400 460 38,000  Level Gander Center
01:18PM 49.1667 -61.5667 233° Southwest 400 460 38,000  Level Gander Center
01:19PM 49.1000 -61.6833 229° Southwest 400 460 38,000  Level Gander Center
01:20PM 49.0333 -61.8167 233° Southwest 400 460 38,000  Level Gander Center
01:21PM 48.9500 -61.9667 230° Southwest 410 472 38,000  Level Gander Center
01:22PM 48.8833 -62.1000 233° Southwest 400 460 38,000  Level Gander Center
01:23PM 48.8167 -62.2167 229° Southwest 400 460 38,000  Level Gander Center
01:24PM 48.7500 -62.3500 233° Southwest 420 483 38,000  Level Gander Center
01:25PM 48.6833 -62.4667 229° Southwest 410 472 38,000  Level Gander Center
01:26PM 48.5833 -62.6167 225° Southwest 400 460 38,000  Level Gander Center
01:27PM 48.5167 -62.7500 233° Southwest 420 483 38,000  Level Gander Center
01:28PM 48.4500 -62.9000 236° Southwest 420 483 38,000  Level Gander Center
01:29PM 48.3667 -63.0167 223° Southwest 420 483 38,000  Level Gander Center
01:30PM 48.3000 -63.1667 236° Southwest 420 483 38,000  Level Gander Center
01:31PM 48.2167 -63.2833 223° Southwest 420 483 38,000  Level Gander Center
01:32PM 48.1500 -63.4167 233° Southwest 420 483 38,000  Level Gander Center
01:33PM 48.0500 -63.5500 222° Southwest 420 483 38,000  Level Gander Center
01:34PM 47.9833 -63.6833 233° Southwest 410 472 38,000  Level Gander Center
01:35PM 47.9167 -63.8167 233° Southwest 440 506 38,000  Level Gander Center
01:36PM 47.8333 -63.9500 227° Southwest 430 495 38,000  Level Gander Center
01:37PM 47.7667 -64.0667 230° Southwest 420 483 38,000  Level Gander Center
01:38PM 47.6667 -64.2167 225° Southwest 420 483 38,000  Level Gander Center
01:39PM 47.6000 -64.3500 233° Southwest 430 495 38,000  Level Gander Center
01:40PM 47.5167 -64.4667 223° Southwest 430 495 38,000  Level Gander Center
01:41PM 47.4500 -64.6167 237° Southwest 420 483 38,000  Level Gander Center
01:42PM 47.3667 -64.7333 223° Southwest 420 483 38,000  Level Gander Center
01:43PM 47.2833 -64.8833 231° Southwest 420 483 38,000  Level Gander Center
01:44PM 47.2167 -65.0000 230° Southwest 430 495 38,000  Level Gander Center
01:45PM 47.1333 -65.1333 227° Southwest 430 495 38,000  Level Gander Center
01:46PM 47.0500 -65.2500 224° Southwest 420 483 38,000  Level Gander Center
01:47PM 46.9667 -65.4000 231° Southwest 420 483 38,000  Level Gander Center
01:48PM 46.9000 -65.5167 230° Southwest 410 472 38,000  Level Gander Center
01:49PM 46.8167 -65.6333 224° Southwest 420 483 38,000  Level Gander Center
01:50PM 46.7333 -65.7667 228° Southwest 420 483 38,000  Level Moncton Center
01:51PM 46.6500 -65.8833 224° Southwest 420 483 38,000  Level Moncton Center
01:57PM 46.1970 -66.6410 224° Southwest 430 495 38,000  Level FlightAware
01:57PM 46.1450 -66.7210 227° Southwest 429 494 38,000  Level FlightAware
01:58PM 46.0820 -66.8170 227° Southwest 429 494 38,000  Level FlightAware
01:59PM 46.0200 -66.9110 226° Southwest 431 496 38,000  Level FlightAware
02:00PM 45.9570 -67.0060 226° Southwest 430 495 38,000  Level FlightAware
02:01PM 45.8570 -67.1600 227° Southwest 428 493 38,000  Level FlightAware
02:02PM 45.8000 -67.2460 226° Southwest 428 493 38,000  Level FlightAware
02:02PM 45.7390 -67.3380 226° Southwest 427 491 38,000  Level FlightAware
02:04PM 45.6430 -67.4830 227° Southwest 426 490 38,000  Level FlightAware
02:04PM 45.5940 -67.5560 226° Southwest 428 493 38,000  Level FlightAware
02:05PM 45.5320 -67.6480 226° Southwest 428 493 38,000  Level FlightAware
02:06PM 45.4440 -67.7710 224° Southwest 432 497 38,000  Level FlightAware
02:07PM 45.3820 -67.8470 221° Southwest 431 496 38,000  Level FlightAware
02:07PM 45.3370 -67.9030 221° Southwest 437 503 38,000  Level FlightAware
02:08PM 45.2760 -67.9800 222° Southwest 432 497 38,000  Level FlightAware
02:09PM 45.2100 -68.0630 222° Southwest 432 497 38,000  Level FlightAware
02:10PM 45.1040 -68.1970 222° Southwest 433 498 38,000  Level FlightAware
02:11PM 44.9980 -68.3290 221° Southwest 432 497 38,000  Level FlightAware
02:12PM 44.9250 -68.4200 221° Southwest 435 501 38,000  Level FlightAware
02:12PM 44.8630 -68.4960 221° Southwest 435 501 38,000  Level FlightAware
02:13PM 44.8020 -68.5710 221° Southwest 437 503 38,000  Level FlightAware
02:14PM 44.7350 -68.6540 221° Southwest 438 504 38,000  Level FlightAware
02:14PM 44.6730 -68.7300 221° Southwest 435 501 38,000  Level FlightAware
02:15PM 44.6050 -68.8140 221° Southwest 437 503 38,000  Level FlightAware
02:16PM 44.5430 -68.8890 221° Southwest 440 506 38,000  Level FlightAware
02:16PM 44.4830 -68.9620 221° Southwest 440 506 38,000  Level FlightAware
02:17PM 44.4130 -69.0470 221° Southwest 438 504 38,000  Level FlightAware
02:18PM 44.3520 -69.1210 221° Southwest 438 504 38,000  Level FlightAware
02:19PM 44.2840 -69.2020 220° Southwest 437 503 38,000  Level FlightAware
02:19PM 44.2230 -69.2760 221° Southwest 438 504 38,000  Level FlightAware
02:20PM 44.1610 -69.3500 221° Southwest 440 506 38,000  Level FlightAware
02:21PM 44.0900 -69.4350 221° Southwest 434 499 38,000  Level FlightAware
02:21PM 44.0320 -69.5040 221° Southwest 435 501 38,000  Level FlightAware
02:22PM 43.9720 -69.5750 220° Southwest 436 502 38,000  Level FlightAware
02:23PM 43.8990 -69.6610 220° Southwest 439 505 38,000  Level FlightAware
02:23PM 43.8370 -69.7350 221° Southwest 441 507 38,000  Level FlightAware
02:24PM 43.7690 -69.8160 221° Southwest 441 507 38,000  Level FlightAware
02:25PM 43.7060 -69.8890 220° Southwest 442 509 38,000  Level FlightAware
02:26PM 43.6370 -69.9700 220° Southwest 440 506 38,000  Level FlightAware
02:26PM 43.5740 -70.0430 220° Southwest 439 505 38,000  Level FlightAware
02:27PM 43.5110 -70.1160 220° Southwest 437 503 38,000  Level FlightAware
02:28PM 43.4440 -70.1940 220° Southwest 435 501 38,000  Level FlightAware
02:28PM 43.3820 -70.2660 220° Southwest 434 499 38,000  Level FlightAware
02:29PM 43.3110 -70.3470 220° Southwest 432 497 38,000  Level FlightAware
02:30PM 43.2500 -70.4180 220° Southwest 435 501 38,000  Level FlightAware
02:30PM 43.1890 -70.4880 220° Southwest 436 502 38,000  Level FlightAware
02:31PM 43.1210 -70.5660 220° Southwest 435 501 38,000  Level FlightAware
02:32PM 43.0590 -70.6370 220° Southwest 437 503 38,000  Level FlightAware
02:33PM 42.9980 -70.7060 220° Southwest 438 504 38,000  Level FlightAware
02:33PM 42.9250 -70.7880 219° Southwest 436 502 38,000  Level FlightAware
02:34PM 42.8630 -70.8590 220° Southwest 435 501 38,000  Level FlightAware
02:35PM 42.7860 -70.9160 209° Southwest 440 506 38,000  Level FlightAware
02:35PM 42.7130 -70.9660 207° Southwest 442 509 38,000  Level FlightAware
02:36PM 42.6410 -71.0160 207° Southwest 441 507 38,000  Level FlightAware
02:37PM 42.5570 -71.0730 207° Southwest 443 510 38,000  Level FlightAware
02:37PM 42.4840 -71.1220 206° Southwest 444 511 38,000  Level FlightAware
02:38PM 42.4130 -71.1700 207° Southwest 445 512 38,000  Level FlightAware
02:39PM 42.3270 -71.2280 207° Southwest 442 509 38,000  Level FlightAware
02:40PM 42.2560 -71.2760 207° Southwest 442 509 38,000 -180 Level FlightAware
02:40PM 42.1720 -71.3320 206° Southwest 442 509 37,800 -660 Descending FlightAware
02:41PM 42.0990 -71.3810 206° Southwest 444 511 37,100 -1,020 Descending FlightAware
02:42PM 42.0270 -71.4290 206° Southwest 449 517 36,500 -780 Descending FlightAware
02:42PM 41.9430 -71.4850 206° Southwest 447 514 36,000 -600 Descending FlightAware
02:43PM 41.8750 -71.5300 206° Southwest 447 514 35,700 -1,500 Descending FlightAware
02:44PM 41.7840 -71.5900 206° Southwest 449 517 33,900 -2,340 Descending FlightAware
02:44PM 41.7080 -71.6410 207° Southwest 456 525 32,400 -2,280 Descending FlightAware
02:45PM 41.6330 -71.6900 206° Southwest 467 537 30,900 -2,280 Descending FlightAware
02:46PM 41.5610 -71.7370 206° Southwest 462 532 29,400 -2,280 Descending FlightAware
02:47PM 41.4760 -71.7930 206° Southwest 456 525 27,700 -2,280 Descending FlightAware
02:47PM 41.3870 -71.8510 206° Southwest 449 517 26,000 -2,160 Descending FlightAware
02:48PM 41.3120 -71.9000 206° Southwest 437 503 24,700 -1,200 Descending FlightAware
02:49PM 41.2120 -71.9990 217° Southwest 413 475 23,800 -1,740 Descending FlightAware
02:49PM 41.1687 -72.0452 219° Southwest 405 466 22,100 -2,340 Descending FlightAware ADS-B
02:51PM 41.0905 -72.1563 227° Southwest 376 433 20,500 -1,800 Descending FlightAware ADS-B
02:51PM 41.0720 -72.2310 252° West 398 458 18,600 -2,040 Descending FlightAware
02:52PM 41.0330 -72.3870 252° West 371 427 16,800 -2,100 Descending FlightAware
02:53PM 41.0120 -72.4720 252° West 359 413 15,300 -2,160 Descending FlightAware
02:54PM 40.9900 -72.5590 252° West 332 382 13,800 -1,800 Descending FlightAware
02:54PM 40.9710 -72.6350 252° West 313 360 12,800 -1,020 Descending FlightAware
02:55PM 40.9400 -72.7010 238° Southwest 275 316 12,400 -660 Descending FlightAware
02:56PM 40.9128 -72.7363 224° Southwest 267 307 12,100 -240 Descending FlightAware ADS-B
02:57PM 40.8670 -72.7980 226° Southwest 252 290 12,100  Level FlightAware
02:58PM 40.8210 -72.8570 224° Southwest 251 289 12,100 -420 Level FlightAware
02:58PM 40.7930 -72.8930 224° Southwest 246 283 11,500 -1,080 Descending FlightAware
02:59PM 40.7560 -72.9410 225° Southwest 228 262 10,700 -1,200 Descending FlightAware
02:59PM 40.7330 -72.9710 225° Southwest 229 264 10,000 -1,200 Descending FlightAware
03:00PM 40.7120 -72.9990 225° Southwest 229 264 9,500 -1,200 Descending FlightAware
03:00PM 40.6920 -73.0270 227° Southwest 229 264 8,900 -1,380 Descending FlightAware
03:01PM 40.6890 -73.0470 259° West 242 278 8,600 -1,200 Descending FlightAware
03:01PM 40.6870 -73.0830 266° West 241 277 8,100 -1,200 Descending FlightAware
03:01PM 40.6840 -73.1280 265° West 237 273 7,500 -1,320 Descending FlightAware
03:02PM 40.6790 -73.1760 262° West 239 275 6,800 -1,860 Descending FlightAware
03:02PM 40.6750 -73.2140 262° West 238 274 5,800 -2,280 Descending FlightAware
03:03PM 40.6710 -73.2470 261° West 239 275 4,900 -2,100 Descending FlightAware
03:03PM 40.6850 -73.2870 295° West 268 308 3,900 -1,680 Descending FlightAware
03:04PM 40.7150 -73.3290 313° West 263 303 3,100 -960 Descending FlightAware
03:04PM 40.7240 -73.3450 307° West 263 303 3,100  Level FlightAware
03:05PM 40.7440 -73.3820 306° West 261 300 3,100  Level FlightAware
03:05PM 40.7590 -73.4090 306° West 261 300 3,100  Level FlightAware
03:05PM 40.7770 -73.4420 306° West 261 300 3,100  Level FlightAware
03:06PM 40.8000 -73.4810 308° West 222 255 3,100 -240 Level FlightAware
03:06PM 40.8160 -73.5160 301° West 188 216 2,900 -780 Descending FlightAware
03:07PM 40.8190 -73.5430 278° West 184 212 2,400 -960 Descending FlightAware
03:07PM 40.8220 -73.5730 278° West 185 213 2,100 -360 Descending FlightAware
03:08PM 40.8160 -73.6010 254° West 150 173 2,100  Level FlightAware
03:08PM 40.8070 -73.6260 245° Southwest 146 168 2,100  Level FlightAware
03:09PM 40.7990 -73.6350 220° Southwest 140 161 2,100  Level FlightAware
03:09PM 40.7870 -73.6440 210° Southwest 139 160 2,100  Level FlightAware
03:09PM 40.7720 -73.6560 211° Southwest 140 161 2,100  Level FlightAware
03:10PM 40.7530 -73.6710 211° Southwest 140 161 2,100  Level FlightAware
03:10PM 40.7480 -73.6750 211° Southwest 141 162 2,100  Level FlightAware
03:11PM 40.7300 -73.6890 211° Southwest 140 161 2,100 -480 Level FlightAware
03:11PM 40.7160 -73.7000 211° Southwest 134 154 1,700 -780 Descending FlightAware
03:11PM 40.7080 -73.7060 210° Southwest 129 148 1,600 -540 Descending FlightAware
03:12PM 40.6940 -73.7160 208° Southwest 117 135 1,300 -600 Descending FlightAware